Taiseimaru — JL6483 — position and weather

sailwx.info

Track history (hours):
 
Tides and Currents Weather Stations Pressure Air Temp Water Temp Dewpoint Dewpoint Depression Visibility Wind Speed Wind Dir Waves Ship Positions

Taiseimaru

Last reported at 2014-Aug-31 03:33 UTC. Time now 2014-Aug-31 04:33 UTC.
Position N 34°23' E 135°06'.

Length 84 m; draft 5 m.

Type: Cargo ship. MMSI: 431500568.

Date/timePositionNaut miles runAvg speedWind from/ knotsBaromVisibWave heightAir tempDewpointWater temp
2014-Aug-31 03:33N 34°23' E 135°06'1110.5
2014-Aug-31 02:32N 34°13' E 134°60'1111.4
2014-Aug-31 01:33N 34°02' E 135°01'177 9.6
2014-Aug-30 07:03N 34°31' E 138°33'2910.2
2014-Aug-30 04:15N 34°44' E 139°04'811.4
2014-Aug-30 03:31N 34°51' E 139°09'1111.2
2014-Aug-30 02:30N 34°58' E 139°20'1010.3
2014-Aug-30 01:33N 35°03' E 139°31'1111.0
2014-Aug-30 00:33N 35°08' E 139°42'1010.4
2014-Aug-29 23:33N 35°19' E 139°44'10 9.6
2014-Aug-29 22:33N 35°28' E 139°43'0 0.0
2014-Aug-29 21:32N 35°28' E 139°43'0 0.0
2014-Aug-29 20:32N 35°28' E 139°43'0 0.0
2014-Aug-29 19:32N 35°28' E 139°43'0 0.0
2014-Aug-29 18:32N 35°28' E 139°43'0 0.0
2014-Aug-29 17:32N 35°28' E 139°43'0 0.0
2014-Aug-29 16:31N 35°28' E 139°43'0 0.0
2014-Aug-29 15:31N 35°28' E 139°43'0 0.0
2014-Aug-29 14:31N 35°28' E 139°43'0 0.0
2014-Aug-29 13:31N 35°28' E 139°43'0 0.0
2014-Aug-29 12:31N 35°28' E 139°43'0 0.0
2014-Aug-29 11:31N 35°28' E 139°43'0 0.0
2014-Aug-29 10:31N 35°28' E 139°43'0 0.0
2014-Aug-29 09:31N 35°28' E 139°43'0 0.3
2014-Aug-29 08:31N 35°28' E 139°42'0 0.0
2014-Aug-29 07:31N 35°28' E 139°42'0 0.0
2014-Aug-29 06:31N 35°28' E 139°42'0 0.0
2014-Aug-29 05:31N 35°28' E 139°42'0 0.0
2014-Aug-29 04:31N 35°28' E 139°42'0 0.0
2014-Aug-29 03:31N 35°28' E 139°42'0 0.0
2014-Aug-29 02:31N 35°28' E 139°42'0 0.0
2014-Aug-29 01:16N 35°28' E 139°42'0 0.0
2014-Aug-29 00:13N 35°28' E 139°42'0 0.0
2014-Aug-28 23:31N 35°28' E 139°42'0 0.0
2014-Aug-28 22:31N 35°28' E 139°42'0 0.0
2014-Aug-28 21:31N 35°28' E 139°42'0 0.0
2014-Aug-28 20:31N 35°28' E 139°42'0 0.0
2014-Aug-28 19:31N 35°28' E 139°42'0 0.0
2014-Aug-28 18:31N 35°28' E 139°42'0 0.0
2014-Aug-28 17:31N 35°28' E 139°42'0 0.0
2014-Aug-28 16:31N 35°28' E 139°42'0 0.0
2014-Aug-28 15:31N 35°28' E 139°42'0 0.0
2014-Aug-28 14:31N 35°28' E 139°42'0 0.0
2014-Aug-28 13:31N 35°28' E 139°42'0 0.0
2014-Aug-28 12:31N 35°28' E 139°42'3 3.2
2014-Aug-28 11:33N 35°26' E 139°44'2 1.5
2014-Aug-28 10:33N 35°24' E 139°45'0 0.0
2014-Aug-28 09:30N 35°24' E 139°45'0 0.1
2014-Aug-28 08:30N 35°24' E 139°45'0 0.0
2014-Aug-28 07:33N 35°24' E 139°45'0 0.0
2014-Aug-28 06:33N 35°24' E 139°45'0 0.0
2014-Aug-28 05:33N 35°24' E 139°45'0 0.0
2014-Aug-28 04:33N 35°24' E 139°45'0 0.0
2014-Aug-28 03:33N 35°24' E 139°45'0 0.0
2014-Aug-28 02:30N 35°24' E 139°45'0 0.0
2014-Aug-28 01:33N 35°24' E 139°45'0 0.0
2014-Aug-28 00:33N 35°24' E 139°45'0 0.0
2014-Aug-27 23:33N 35°24' E 139°45'0 0.0
2014-Aug-27 22:33N 35°24' E 139°45'0 0.0
2014-Aug-27 21:33N 35°24' E 139°45'0 0.0
2014-Aug-27 20:33N 35°24' E 139°45'0 0.0
2014-Aug-27 19:33N 35°24' E 139°45'0 0.0
2014-Aug-27 18:33N 35°24' E 139°45'0 0.0
2014-Aug-27 17:33N 35°24' E 139°45'0 0.0
2014-Aug-27 16:33N 35°24' E 139°45'0 0.0
2014-Aug-27 15:33N 35°24' E 139°45'0 0.0
2014-Aug-27 14:33N 35°24' E 139°45'0 0.0
2014-Aug-27 13:33N 35°24' E 139°45'0 0.0
2014-Aug-27 12:33N 35°24' E 139°45'0 0.0
2014-Aug-27 11:33N 35°24' E 139°45'0 0.0
2014-Aug-27 10:33N 35°24' E 139°45'0 0.0
2014-Aug-27 09:33N 35°24' E 139°45'0 0.0
2014-Aug-27 08:33N 35°24' E 139°45'0 0.0
2014-Aug-27 07:30N 35°24' E 139°45'0 0.1
2014-Aug-27 06:33N 35°24' E 139°45'0 0.0
2014-Aug-27 05:32N 35°24' E 139°45'0 0.0
2014-Aug-27 04:32N 35°24' E 139°45'0 0.0
2014-Aug-27 03:32N 35°24' E 139°45'0 0.0
2014-Aug-27 02:32N 35°24' E 139°45'0 0.0
2014-Aug-27 01:32N 35°24' E 139°45'0 0.0
2014-Aug-27 00:32N 35°24' E 139°45'0 0.0
2014-Aug-26 23:32N 35°24' E 139°45'0 0.0
2014-Aug-26 22:32N 35°24' E 139°45'0 0.0
2014-Aug-26 21:32N 35°24' E 139°45'0 0.0
2014-Aug-26 20:32N 35°24' E 139°45'0 0.0
2014-Aug-26 19:32N 35°24' E 139°45'0 0.0
2014-Aug-26 18:32N 35°24' E 139°45'0 0.0
2014-Aug-26 17:32N 35°24' E 139°45'0 0.0
2014-Aug-26 16:29N 35°24' E 139°45'0 0.0
2014-Aug-26 15:29N 35°24' E 139°45'0 0.0
2014-Aug-26 14:32N 35°24' E 139°45'0 0.0
2014-Aug-26 13:32N 35°24' E 139°45'0 0.0
2014-Aug-26 12:32N 35°24' E 139°45'0 0.0
2014-Aug-26 11:32N 35°24' E 139°45'0 0.0
2014-Aug-26 10:32N 35°24' E 139°45'0 0.0
2014-Aug-26 09:32N 35°24' E 139°45'3 2.6
2014-Aug-26 08:33N 35°26' E 139°43'4 3.9
2014-Aug-26 07:32N 35°29' E 139°39'0 0.0
2014-Aug-26 06:32N 35°29' E 139°39'0 0.0
2014-Aug-26 05:32N 35°29' E 139°39'0 0.0
2014-Aug-26 04:32N 35°29' E 139°39'0 0.0
2014-Aug-26 03:29N 35°29' E 139°39'0 0.0
2014-Aug-26 02:29N 35°29' E 139°39'0 0.0
2014-Aug-26 01:32N 35°29' E 139°39'0 0.0
2014-Aug-26 00:32N 35°29' E 139°39'0 0.0
2014-Aug-25 23:32N 35°29' E 139°39'3 3.1
2014-Aug-25 22:33N 35°27' E 139°42'4 4.1
2014-Aug-25 21:32N 35°23' E 139°45'0 0.0
2014-Aug-25 20:32N 35°23' E 139°45'0 0.0
2014-Aug-25 19:32N 35°23' E 139°45'0 0.0
2014-Aug-25 18:32N 35°23' E 139°45'0 0.0
2014-Aug-25 17:28N 35°23' E 139°45'0 0.0
2014-Aug-25 16:31N 35°23' E 139°45'0 0.0
2014-Aug-25 15:31N 35°23' E 139°45'0 0.0
2014-Aug-25 14:31N 35°23' E 139°45'0 0.0
2014-Aug-25 13:31N 35°23' E 139°45'0 0.0
2014-Aug-25 12:31N 35°23' E 139°45'0 0.1
2014-Aug-25 11:31N 35°23' E 139°45'5 5.3
2014-Aug-25 10:33N 35°18' E 139°44'10 9.8
2014-Aug-25 09:33N 35°09' E 139°45'1111.0
2014-Aug-25 08:33N 35°01' E 139°36'1312.3
2014-Aug-25 07:28N 34°52' E 139°23'222 9.6
2014-Aug-24 08:27N 34°08' E 134°60'1010.9
2014-Aug-24 07:30N 34°18' E 134°59'1010.2
2014-Aug-24 06:33N 34°26' E 135°06'1110.9
2014-Aug-24 05:33N 34°33' E 135°16'8 6.9
2014-Aug-24 04:22N 34°35' E 135°26'0 0.0
2014-Aug-24 03:04N 34°35' E 135°26'0 0.0
2014-Aug-24 02:28N 34°35' E 135°26'0 0.0
2014-Aug-24 01:28N 34°35' E 135°26'0 0.0
2014-Aug-24 00:10N 34°35' E 135°26'0 0.0
2014-Aug-23 23:28N 34°35' E 135°26'0 0.0
2014-Aug-23 22:28N 34°35' E 135°26'0 0.0
2014-Aug-23 21:28N 34°35' E 135°26'0 0.0
2014-Aug-23 20:28N 34°35' E 135°26'0 0.0
2014-Aug-23 19:28N 34°35' E 135°26'0 0.0
2014-Aug-23 03:16N 34°35' E 135°26'0 0.0
2014-Aug-23 01:28N 34°35' E 135°26'0 0.0
2014-Aug-23 00:22N 34°35' E 135°26'0 0.0
2014-Aug-22 23:10N 34°35' E 135°26'0 0.1
2014-Aug-22 22:28N 34°35' E 135°26'0 0.0
2014-Aug-22 21:22N 34°35' E 135°26'0 0.1
2014-Aug-22 20:28N 34°35' E 135°26'0 0.1
2014-Aug-22 19:34N 34°35' E 135°26'0 0.0
2014-Aug-22 18:33N 34°35' E 135°26'0 0.0
2014-Aug-22 17:33N 34°35' E 135°26'0 0.0
2014-Aug-22 16:33N 34°35' E 135°26'0 0.0
2014-Aug-22 15:33N 34°35' E 135°26'0 0.0
2014-Aug-22 14:33N 34°35' E 135°26'0 0.0
2014-Aug-22 13:15N 34°35' E 135°26'0 0.0
2014-Aug-22 12:33N 34°35' E 135°26'0 0.0
2014-Aug-22 11:21N 34°35' E 135°26'0 0.1
2014-Aug-22 10:33N 34°35' E 135°26'0 0.0
2014-Aug-22 09:33N 34°35' E 135°26'0 0.0
2014-Aug-22 08:33N 34°35' E 135°26'0 0.0
2014-Aug-22 07:33N 34°35' E 135°26'0 0.1
2014-Aug-22 06:33N 34°35' E 135°26'0 0.0
2014-Aug-22 05:31N 34°35' E 135°26'0 0.0
2014-Aug-22 04:33N 34°35' E 135°26'3 2.6
2014-Aug-22 03:33N 34°36' E 135°23'1111.0
2014-Aug-22 02:33N 34°28' E 135°14'1111.0
2014-Aug-22 01:33N 34°21' E 135°04'10 9.9
2014-Aug-22 00:33N 34°12' E 135°00'180 8.8
2014-Aug-21 04:09N 34°34' E 138°37'  
Track history (hours):
 
Tides and Currents Weather Stations Pressure Air Temp Water Temp Dewpoint Dewpoint Depression Visibility Wind Speed Wind Dir Waves Ship Positions

Taiseimaru

Last reported at 2014-Aug-31 03:33 UTC. Time now 2014-Aug-31 04:33 UTC.
Position N 34°23' E 135°06'.

Length 84 m; draft 5 m.

Type: Cargo ship. MMSI: 431500568.

Date/timePositionNaut miles runAvg speedWind from/ knotsBaromVisibWave heightAir tempDewpointWater temp
2014-Aug-31 03:33N 34°23' E 135°06'1110.5
2014-Aug-31 02:32N 34°13' E 134°60'1111.4
2014-Aug-31 01:33N 34°02' E 135°01'177 9.6
2014-Aug-30 07:03N 34°31' E 138°33'2910.2
2014-Aug-30 04:15N 34°44' E 139°04'811.4
2014-Aug-30 03:31N 34°51' E 139°09'1111.2
2014-Aug-30 02:30N 34°58' E 139°20'1010.3
2014-Aug-30 01:33N 35°03' E 139°31'1111.0
2014-Aug-30 00:33N 35°08' E 139°42'1010.4
2014-Aug-29 23:33N 35°19' E 139°44'10 9.6
2014-Aug-29 22:33N 35°28' E 139°43'0 0.0
2014-Aug-29 21:32N 35°28' E 139°43'0 0.0
2014-Aug-29 20:32N 35°28' E 139°43'0 0.0
2014-Aug-29 19:32N 35°28' E 139°43'0 0.0
2014-Aug-29 18:32N 35°28' E 139°43'0 0.0
2014-Aug-29 17:32N 35°28' E 139°43'0 0.0
2014-Aug-29 16:31N 35°28' E 139°43'0 0.0
2014-Aug-29 15:31N 35°28' E 139°43'0 0.0
2014-Aug-29 14:31N 35°28' E 139°43'0 0.0
2014-Aug-29 13:31N 35°28' E 139°43'0 0.0
2014-Aug-29 12:31N 35°28' E 139°43'0 0.0
2014-Aug-29 11:31N 35°28' E 139°43'0 0.0
2014-Aug-29 10:31N 35°28' E 139°43'0 0.0
2014-Aug-29 09:31N 35°28' E 139°43'0 0.3
2014-Aug-29 08:31N 35°28' E 139°42'0 0.0
2014-Aug-29 07:31N 35°28' E 139°42'0 0.0
2014-Aug-29 06:31N 35°28' E 139°42'0 0.0
2014-Aug-29 05:31N 35°28' E 139°42'0 0.0
2014-Aug-29 04:31N 35°28' E 139°42'0 0.0
2014-Aug-29 03:31N 35°28' E 139°42'0 0.0
2014-Aug-29 02:31N 35°28' E 139°42'0 0.0
2014-Aug-29 01:16N 35°28' E 139°42'0 0.0
2014-Aug-29 00:13N 35°28' E 139°42'0 0.0
2014-Aug-28 23:31N 35°28' E 139°42'0 0.0
2014-Aug-28 22:31N 35°28' E 139°42'0 0.0
2014-Aug-28 21:31N 35°28' E 139°42'0 0.0
2014-Aug-28 20:31N 35°28' E 139°42'0 0.0
2014-Aug-28 19:31N 35°28' E 139°42'0 0.0
2014-Aug-28 18:31N 35°28' E 139°42'0 0.0
2014-Aug-28 17:31N 35°28' E 139°42'0 0.0
2014-Aug-28 16:31N 35°28' E 139°42'0 0.0
2014-Aug-28 15:31N 35°28' E 139°42'0 0.0
2014-Aug-28 14:31N 35°28' E 139°42'0 0.0
2014-Aug-28 13:31N 35°28' E 139°42'0 0.0
2014-Aug-28 12:31N 35°28' E 139°42'3 3.2
2014-Aug-28 11:33N 35°26' E 139°44'2 1.5
2014-Aug-28 10:33N 35°24' E 139°45'0 0.0
2014-Aug-28 09:30N 35°24' E 139°45'0 0.1
2014-Aug-28 08:30N 35°24' E 139°45'0 0.0
2014-Aug-28 07:33N 35°24' E 139°45'0 0.0
2014-Aug-28 06:33N 35°24' E 139°45'0 0.0
2014-Aug-28 05:33N 35°24' E 139°45'0 0.0
2014-Aug-28 04:33N 35°24' E 139°45'0 0.0
2014-Aug-28 03:33N 35°24' E 139°45'0 0.0
2014-Aug-28 02:30N 35°24' E 139°45'0 0.0
2014-Aug-28 01:33N 35°24' E 139°45'0 0.0
2014-Aug-28 00:33N 35°24' E 139°45'0 0.0
2014-Aug-27 23:33N 35°24' E 139°45'0 0.0
2014-Aug-27 22:33N 35°24' E 139°45'0 0.0
2014-Aug-27 21:33N 35°24' E 139°45'0 0.0
2014-Aug-27 20:33N 35°24' E 139°45'0 0.0
2014-Aug-27 19:33N 35°24' E 139°45'0 0.0
2014-Aug-27 18:33N 35°24' E 139°45'0 0.0
2014-Aug-27 17:33N 35°24' E 139°45'0 0.0
2014-Aug-27 16:33N 35°24' E 139°45'0 0.0
2014-Aug-27 15:33N 35°24' E 139°45'0 0.0
2014-Aug-27 14:33N 35°24' E 139°45'0 0.0
2014-Aug-27 13:33N 35°24' E 139°45'0 0.0
2014-Aug-27 12:33N 35°24' E 139°45'0 0.0
2014-Aug-27 11:33N 35°24' E 139°45'0 0.0
2014-Aug-27 10:33N 35°24' E 139°45'0 0.0
2014-Aug-27 09:33N 35°24' E 139°45'0 0.0
2014-Aug-27 08:33N 35°24' E 139°45'0 0.0
2014-Aug-27 07:30N 35°24' E 139°45'0 0.1
2014-Aug-27 06:33N 35°24' E 139°45'0 0.0
2014-Aug-27 05:32N 35°24' E 139°45'0 0.0
2014-Aug-27 04:32N 35°24' E 139°45'0 0.0
2014-Aug-27 03:32N 35°24' E 139°45'0 0.0
2014-Aug-27 02:32N 35°24' E 139°45'0 0.0
2014-Aug-27 01:32N 35°24' E 139°45'0 0.0
2014-Aug-27 00:32N 35°24' E 139°45'0 0.0
2014-Aug-26 23:32N 35°24' E 139°45'0 0.0
2014-Aug-26 22:32N 35°24' E 139°45'0 0.0
2014-Aug-26 21:32N 35°24' E 139°45'0 0.0
2014-Aug-26 20:32N 35°24' E 139°45'0 0.0
2014-Aug-26 19:32N 35°24' E 139°45'0 0.0
2014-Aug-26 18:32N 35°24' E 139°45'0 0.0
2014-Aug-26 17:32N 35°24' E 139°45'0 0.0
2014-Aug-26 16:29N 35°24' E 139°45'0 0.0
2014-Aug-26 15:29N 35°24' E 139°45'0 0.0
2014-Aug-26 14:32N 35°24' E 139°45'0 0.0
2014-Aug-26 13:32N 35°24' E 139°45'0 0.0
2014-Aug-26 12:32N 35°24' E 139°45'0 0.0
2014-Aug-26 11:32N 35°24' E 139°45'0 0.0
2014-Aug-26 10:32N 35°24' E 139°45'0 0.0
2014-Aug-26 09:32N 35°24' E 139°45'3 2.6
2014-Aug-26 08:33N 35°26' E 139°43'4 3.9
2014-Aug-26 07:32N 35°29' E 139°39'0 0.0
2014-Aug-26 06:32N 35°29' E 139°39'0 0.0
2014-Aug-26 05:32N 35°29' E 139°39'0 0.0
2014-Aug-26 04:32N 35°29' E 139°39'0 0.0
2014-Aug-26 03:29N 35°29' E 139°39'0 0.0
2014-Aug-26 02:29N 35°29' E 139°39'0 0.0
2014-Aug-26 01:32N 35°29' E 139°39'0 0.0
2014-Aug-26 00:32N 35°29' E 139°39'0 0.0
2014-Aug-25 23:32N 35°29' E 139°39'3 3.1
2014-Aug-25 22:33N 35°27' E 139°42'4 4.1
2014-Aug-25 21:32N 35°23' E 139°45'0 0.0
2014-Aug-25 20:32N 35°23' E 139°45'0 0.0
2014-Aug-25 19:32N 35°23' E 139°45'0 0.0
2014-Aug-25 18:32N 35°23' E 139°45'0 0.0
2014-Aug-25 17:28N 35°23' E 139°45'0 0.0
2014-Aug-25 16:31N 35°23' E 139°45'0 0.0
2014-Aug-25 15:31N 35°23' E 139°45'0 0.0
2014-Aug-25 14:31N 35°23' E 139°45'0 0.0
2014-Aug-25 13:31N 35°23' E 139°45'0 0.0
2014-Aug-25 12:31N 35°23' E 139°45'0 0.1
2014-Aug-25 11:31N 35°23' E 139°45'5 5.3
2014-Aug-25 10:33N 35°18' E 139°44'10 9.8
2014-Aug-25 09:33N 35°09' E 139°45'1111.0
2014-Aug-25 08:33N 35°01' E 139°36'1312.3
2014-Aug-25 07:28N 34°52' E 139°23'222 9.6
2014-Aug-24 08:27N 34°08' E 134°60'1010.9
2014-Aug-24 07:30N 34°18' E 134°59'1010.2
2014-Aug-24 06:33N 34°26' E 135°06'1110.9
2014-Aug-24 05:33N 34°33' E 135°16'8 6.9
2014-Aug-24 04:22N 34°35' E 135°26'0 0.0
2014-Aug-24 03:04N 34°35' E 135°26'0 0.0
2014-Aug-24 02:28N 34°35' E 135°26'0 0.0
2014-Aug-24 01:28N 34°35' E 135°26'0 0.0
2014-Aug-24 00:10N 34°35' E 135°26'0 0.0
2014-Aug-23 23:28N 34°35' E 135°26'0 0.0
2014-Aug-23 22:28N 34°35' E 135°26'0 0.0
2014-Aug-23 21:28N 34°35' E 135°26'0 0.0
2014-Aug-23 20:28N 34°35' E 135°26'0 0.0
2014-Aug-23 19:28N 34°35' E 135°26'0 0.0
2014-Aug-23 03:16N 34°35' E 135°26'0 0.0
2014-Aug-23 01:28N 34°35' E 135°26'0 0.0
2014-Aug-23 00:22N 34°35' E 135°26'0 0.0
2014-Aug-22 23:10N 34°35' E 135°26'0 0.1
2014-Aug-22 22:28N 34°35' E 135°26'0 0.0
2014-Aug-22 21:22N 34°35' E 135°26'0 0.1
2014-Aug-22 20:28N 34°35' E 135°26'0 0.1
2014-Aug-22 19:34N 34°35' E 135°26'0 0.0
2014-Aug-22 18:33N 34°35' E 135°26'0 0.0
2014-Aug-22 17:33N 34°35' E 135°26'0 0.0
2014-Aug-22 16:33N 34°35' E 135°26'0 0.0
2014-Aug-22 15:33N 34°35' E 135°26'0 0.0
2014-Aug-22 14:33N 34°35' E 135°26'0 0.0
2014-Aug-22 13:15N 34°35' E 135°26'0 0.0
2014-Aug-22 12:33N 34°35' E 135°26'0 0.0
2014-Aug-22 11:21N 34°35' E 135°26'0 0.1
2014-Aug-22 10:33N 34°35' E 135°26'0 0.0
2014-Aug-22 09:33N 34°35' E 135°26'0 0.0
2014-Aug-22 08:33N 34°35' E 135°26'0 0.0
2014-Aug-22 07:33N 34°35' E 135°26'0 0.1
2014-Aug-22 06:33N 34°35' E 135°26'0 0.0
2014-Aug-22 05:31N 34°35' E 135°26'0 0.0
2014-Aug-22 04:33N 34°35' E 135°26'3 2.6
2014-Aug-22 03:33N 34°36' E 135°23'1111.0
2014-Aug-22 02:33N 34°28' E 135°14'1111.0
2014-Aug-22 01:33N 34°21' E 135°04'10 9.9
2014-Aug-22 00:33N 34°12' E 135°00'180 8.8
2014-Aug-21 04:09N 34°34' E 138°37'  

Dump ship's entire track history